Time;durP1;ratioP1;P1;durP2;ratioP2;P2;SDS_P1;SDS_P2;PMS_P1;PMS_P2;Temp;Humidity;BMP_temperature;BMP_pressure;BME280_temperature;BME280_humidity;BME280_pressure;Samples;Min_cycle;Max_cycle;Signal;HPM_P1;HPM_P2
2023/04/16 00:00:08;;;;;;;19.63;17.63;;;8.60;99.90;;;;;;5009909;28;20479;-62
2023/04/16 00:02:36;;;;;;;20.83;18.73;;;8.60;99.90;;;;;;5013809;28;20496;-62
2023/04/16 00:05:05;;;;;;;21.90;19.50;;;8.50;99.90;;;;;;5024417;28;20471;-62
2023/04/16 00:07:35;;;;;;;21.80;17.97;;;8.50;99.90;;;;;;5031782;28;20499;-62
2023/04/16 00:10:03;;;;;;;23.57;19.20;;;8.50;99.90;;;;;;5027588;28;20861;-63
2023/04/16 00:12:31;;;;;;;18.80;16.90;;;8.50;99.90;;;;;;5010326;28;20492;-62
2023/04/16 00:14:59;;;;;;;19.97;17.97;;;8.40;99.90;;;;;;5016662;28;20471;-61
2023/04/16 00:17:26;;;;;;;18.50;16.63;;;8.40;99.90;;;;;;5017702;28;20474;-62
2023/04/16 00:19:54;;;;;;;20.03;18.00;;;8.40;99.90;;;;;;5014217;28;20471;-61
2023/04/16 00:22:22;;;;;;;22.13;18.90;;;8.40;99.90;;;;;;5013471;28;20492;-61
2023/04/16 00:24:51;;;;;;;20.70;18.50;;;8.30;99.90;;;;;;5014659;28;20471;-62
2023/04/16 00:27:20;;;;;;;22.00;18.87;;;8.30;99.90;;;;;;5013599;28;20487;-61
2023/04/16 00:29:48;;;;;;;21.83;18.87;;;8.30;99.90;;;;;;5008475;28;20499;-61
2023/04/16 00:32:16;;;;;;;20.03;17.93;;;8.30;99.90;;;;;;5012493;28;20488;-62
2023/04/16 00:34:44;;;;;;;19.13;17.23;;;8.30;99.90;;;;;;5010695;28;20480;-62
2023/04/16 00:37:12;;;;;;;20.80;18.70;;;8.30;99.90;;;;;;5009336;28;20478;-61
2023/04/16 00:39:40;;;;;;;20.10;18.00;;;8.30;99.90;;;;;;5010062;28;20937;-62
2023/04/16 00:42:09;;;;;;;20.37;18.27;;;8.20;99.90;;;;;;4994998;28;20526;-62
2023/04/16 00:44:38;;;;;;;20.43;18.20;;;8.20;99.90;;;;;;5004975;28;20483;-62
2023/04/16 00:47:06;;;;;;;20.57;18.37;;;8.30;99.90;;;;;;5002216;28;20482;-61
2023/04/16 00:49:35;;;;;;;20.23;18.07;;;8.20;99.90;;;;;;5009805;28;21027;-61
2023/04/16 00:52:05;;;;;;;19.87;17.80;;;8.30;99.90;;;;;;5002851;28;20488;-62
2023/04/16 00:54:33;;;;;;;21.30;17.40;;;8.20;99.90;;;;;;5001619;28;20462;-62
2023/04/16 00:57:02;;;;;;;18.67;16.60;;;8.30;99.90;;;;;;4998677;28;20468;-61
2023/04/16 00:59:32;;;;;;;20.37;17.70;;;8.30;99.90;;;;;;4995287;28;21001;-61
2023/04/16 01:02:00;;;;;;;18.83;16.33;;;8.30;99.90;;;;;;5000329;28;20560;-61
2023/04/16 01:04:29;;;;;;;20.43;18.23;;;8.30;99.90;;;;;;5001192;28;20479;-61
2023/04/16 01:06:57;;;;;;;18.77;16.77;;;8.30;99.90;;;;;;4998546;28;20618;-62
2023/04/16 01:09:25;;;;;;;18.97;17.00;;;8.30;99.90;;;;;;5007888;28;20507;-62
2023/04/16 01:11:53;;;;;;;19.87;17.50;;;8.30;99.90;;;;;;5013071;28;20491;-62
2023/04/16 01:14:21;;;;;;;19.10;17.03;;;8.20;99.90;;;;;;5013298;28;20473;-61
2023/04/16 01:16:51;;;;;;;20.20;17.00;;;8.30;99.90;;;;;;5013833;28;20475;-61
2023/04/16 01:19:18;;;;;;;18.77;16.77;;;8.30;99.90;;;;;;5015392;28;20498;-62
2023/04/16 01:21:48;;;;;;;17.80;16.03;;;8.30;99.90;;;;;;5000779;28;20932;-62
2023/04/16 01:24:16;;;;;;;18.37;16.50;;;8.30;99.90;;;;;;5001078;28;20984;-61
2023/04/16 01:26:44;;;;;;;19.43;16.87;;;8.30;99.90;;;;;;4993018;28;22273;-62
2023/04/16 01:29:11;;;;;;;18.73;16.47;;;8.30;99.90;;;;;;4998539;28;20503;-61
2023/04/16 01:31:39;;;;;;;18.67;16.77;;;8.40;99.90;;;;;;5009793;28;20495;-62
2023/04/16 01:34:07;;;;;;;19.10;17.00;;;8.40;99.90;;;;;;5007566;28;20472;-62
2023/04/16 01:36:35;;;;;;;17.90;15.83;;;8.40;99.90;;;;;;5000268;28;20471;-62
2023/04/16 01:39:05;;;;;;;17.93;15.57;;;8.40;99.90;;;;;;5010586;28;20917;-62
2023/04/16 01:41:33;;;;;;;20.50;16.77;;;8.40;99.90;;;;;;5012936;28;21071;-61
2023/04/16 01:44:01;;;;;;;19.97;17.47;;;8.40;99.90;;;;;;5017043;28;20478;-62
2023/04/16 01:46:30;;;;;;;18.00;16.17;;;8.40;99.90;;;;;;5007810;28;20472;-61
2023/04/16 01:48:58;;;;;;;17.87;15.73;;;8.40;99.90;;;;;;5004171;28;20638;-61
2023/04/16 01:51:27;;;;;;;18.60;16.70;;;8.40;99.90;;;;;;5004373;28;20487;-62
2023/04/16 01:53:57;;;;;;;18.43;15.80;;;8.40;99.90;;;;;;4999940;28;20482;-62
2023/04/16 01:56:26;;;;;;;19.23;16.73;;;8.50;99.90;;;;;;5002582;28;20849;-62
2023/04/16 01:58:54;;;;;;;18.53;15.30;;;8.50;99.90;;;;;;5009955;28;20486;-62
2023/04/16 02:01:22;;;;;;;18.00;16.03;;;8.50;99.90;;;;;;5008091;28;20483;-62
2023/04/16 02:03:51;;;;;;;18.67;16.77;;;8.50;99.90;;;;;;5012380;28;20506;-62
2023/04/16 02:06:19;;;;;;;17.97;15.53;;;8.50;99.90;;;;;;4997562;28;20471;-61
2023/04/16 02:08:47;;;;;;;18.07;15.50;;;8.50;99.90;;;;;;5019474;28;20499;-62
2023/04/16 02:11:15;;;;;;;16.10;14.40;;;8.50;99.90;;;;;;5025594;28;20490;-62
2023/04/16 02:13:45;;;;;;;18.37;16.27;;;8.50;99.90;;;;;;5007752;28;20476;-62
2023/04/16 02:16:13;;;;;;;18.27;16.27;;;8.50;99.90;;;;;;5009225;28;20471;-62
2023/04/16 02:18:40;;;;;;;16.87;15.07;;;8.50;99.90;;;;;;5023269;28;20487;-62
2023/04/16 02:21:08;;;;;;;16.90;15.07;;;8.50;99.90;;;;;;5009425;28;20502;-64
2023/04/16 02:23:39;;;;;;;17.90;15.50;;;8.50;99.90;;;;;;5024457;28;20513;-61
2023/04/16 02:26:07;;;;;;;17.43;15.63;;;8.50;99.90;;;;;;5020115;28;20507;-62
2023/04/16 02:28:35;;;;;;;17.70;15.80;;;8.50;99.90;;;;;;5024064;28;20499;-63
2023/04/16 02:31:05;;;;;;;17.40;15.27;;;8.60;99.90;;;;;;5017086;28;20484;-61
2023/04/16 02:33:34;;;;;;;18.60;15.97;;;8.50;99.90;;;;;;5012107;28;20467;-62
2023/04/16 02:36:02;;;;;;;16.13;14.53;;;8.50;99.90;;;;;;5011317;28;20558;-61
2023/04/16 02:38:30;;;;;;;19.47;16.13;;;8.60;99.90;;;;;;5002079;28;21083;-62
2023/04/16 02:40:58;;;;;;;18.10;16.17;;;8.60;99.90;;;;;;5001430;28;20495;-62
2023/04/16 02:43:26;;;;;;;17.00;15.27;;;8.60;99.90;;;;;;4999706;28;20468;-61
2023/04/16 02:45:54;;;;;;;17.20;15.40;;;8.60;99.90;;;;;;5014987;28;20486;-61
2023/04/16 02:48:23;;;;;;;20.20;17.30;;;8.60;99.90;;;;;;5005019;28;21223;-61
2023/04/16 02:50:51;;;;;;;21.03;17.57;;;8.60;99.90;;;;;;4999890;28;20506;-61
2023/04/16 02:53:20;;;;;;;19.07;17.07;;;8.60;99.90;;;;;;5001667;28;20579;-61
2023/04/16 02:55:52;;;;;;;19.00;17.07;;;8.60;99.90;;;;;;4995830;28;20486;-62
2023/04/16 02:58:21;;;;;;;20.17;18.13;;;8.60;99.90;;;;;;4997666;28;20494;-62
2023/04/16 03:00:48;;;;;;;20.50;17.33;;;8.60;99.90;;;;;;5001007;28;20502;-62
2023/04/16 03:03:16;;;;;;;19.83;17.70;;;8.60;99.90;;;;;;5012071;28;20521;-62
2023/04/16 03:05:46;;;;;;;19.47;17.07;;;8.60;99.90;;;;;;5000971;28;20478;-61
2023/04/16 03:08:14;;;;;;;19.60;16.67;;;8.60;99.90;;;;;;5002649;28;20529;-61
2023/04/16 03:10:42;;;;;;;19.30;17.30;;;8.60;99.90;;;;;;5009293;28;20492;-62
2023/04/16 03:13:10;;;;;;;20.13;17.70;;;8.60;99.90;;;;;;5010931;28;20480;-62
2023/04/16 03:15:38;;;;;;;21.30;19.10;;;8.60;99.90;;;;;;5008002;28;20479;-62
2023/04/16 03:18:07;;;;;;;21.60;18.67;;;8.60;99.90;;;;;;5018202;28;21557;-62
2023/04/16 03:20:35;;;;;;;21.03;18.83;;;8.60;99.90;;;;;;5004589;28;20470;-62
2023/04/16 03:23:05;;;;;;;20.97;18.77;;;8.60;99.90;;;;;;5003814;28;20468;-62
2023/04/16 03:25:33;;;;;;;20.60;18.40;;;8.60;99.90;;;;;;5003721;28;20475;-61
2023/04/16 03:28:02;;;;;;;20.90;18.60;;;8.60;99.90;;;;;;5014156;28;20878;-62
2023/04/16 03:30:30;;;;;;;20.77;18.47;;;8.60;99.90;;;;;;5017265;28;20570;-62
2023/04/16 03:32:58;;;;;;;20.50;18.30;;;8.70;99.90;;;;;;4998895;28;20471;-61
2023/04/16 03:35:28;;;;;;;22.00;19.50;;;8.70;99.90;;;;;;5006424;28;20475;-62
2023/04/16 03:37:56;;;;;;;21.13;17.63;;;8.70;99.90;;;;;;5004196;28;20495;-61
2023/04/16 03:40:26;;;;;;;20.73;17.90;;;8.70;99.90;;;;;;5010613;28;20459;-62
2023/04/16 03:42:54;;;;;;;20.87;18.67;;;8.70;99.90;;;;;;5001589;28;20471;-62
2023/04/16 03:45:22;;;;;;;21.67;17.90;;;8.70;99.90;;;;;;4996600;28;20479;-62
2023/04/16 03:47:51;;;;;;;20.30;18.20;;;8.70;99.90;;;;;;5008468;28;20491;-62
2023/04/16 03:50:19;;;;;;;20.10;18.10;;;8.70;99.90;;;;;;5012750;28;20582;-62
2023/04/16 03:52:48;;;;;;;24.50;18.50;;;8.70;99.90;;;;;;5009657;28;20491;-62
2023/04/16 03:55:16;;;;;;;20.40;18.30;;;8.70;99.90;;;;;;5014633;28;20897;-62
2023/04/16 03:57:45;;;;;;;21.27;18.97;;;8.70;99.90;;;;;;5008764;28;20499;-61
2023/04/16 04:00:14;;;;;;;19.60;17.60;;;8.70;99.90;;;;;;4996260;28;20464;-61
2023/04/16 04:02:42;;;;;;;22.90;18.83;;;8.70;99.90;;;;;;5002263;28;20487;-61
2023/04/16 04:05:10;;;;;;;21.37;18.60;;;8.70;99.90;;;;;;5014990;28;20467;-62
2023/04/16 04:07:38;;;;;;;21.23;18.40;;;8.70;99.90;;;;;;5023346;28;20495;-61
2023/04/16 04:10:07;;;;;;;20.67;18.47;;;8.70;99.90;;;;;;5010685;28;20507;-62
2023/04/16 04:12:35;;;;;;;20.13;18.03;;;8.70;99.90;;;;;;4994747;28;20486;-62
2023/04/16 04:15:06;;;;;;;22.13;19.43;;;8.70;99.90;;;;;;4997928;28;20482;-61
2023/04/16 04:17:33;;;;;;;20.80;18.63;;;8.70;99.90;;;;;;5002154;28;20495;-62
2023/04/16 04:20:01;;;;;;;21.10;18.80;;;8.80;99.90;;;;;;4997331;28;20464;-62
2023/04/16 04:22:30;;;;;;;21.20;19.00;;;8.80;99.90;;;;;;5001560;28;20563;-62
2023/04/16 04:24:57;;;;;;;19.20;17.30;;;8.80;99.90;;;;;;5015587;28;20506;-62
2023/04/16 04:27:26;;;;;;;20.57;18.30;;;8.80;99.90;;;;;;4992992;28;20464;-62
2023/04/16 04:29:53;;;;;;;20.97;18.77;;;8.80;99.90;;;;;;5013433;28;20471;-62
2023/04/16 04:32:23;;;;;;;19.93;17.93;;;8.80;99.90;;;;;;5002833;28;20479;-62
2023/04/16 04:34:51;;;;;;;20.87;18.70;;;8.80;99.90;;;;;;4997151;28;20480;-61
2023/04/16 04:37:19;;;;;;;21.10;18.90;;;8.80;99.90;;;;;;4993817;28;20494;-61
2023/04/16 04:39:46;;;;;;;19.87;17.87;;;8.80;99.90;;;;;;4999884;28;20480;-61
2023/04/16 04:42:18;;;;;;;21.47;19.00;;;8.80;99.90;;;;;;4994025;28;21120;-62
2023/04/16 04:44:46;;;;;;;19.87;17.80;;;8.80;99.90;;;;;;5018348;28;20479;-62
2023/04/16 04:47:15;;;;;;;19.03;17.23;;;8.80;99.90;;;;;;5022934;28;20467;-61
2023/04/16 04:49:44;;;;;;;20.90;18.23;;;8.80;99.90;;;;;;5022558;28;20467;-62
2023/04/16 04:52:12;;;;;;;19.40;17.37;;;8.80;99.90;;;;;;5036367;28;20500;-62
2023/04/16 04:54:41;;;;;;;20.30;18.17;;;8.90;99.90;;;;;;5027278;28;20484;-62
2023/04/16 04:57:08;;;;;;;19.07;17.07;;;8.90;99.90;;;;;;5027686;28;20552;-62
2023/04/16 04:59:36;;;;;;;19.50;17.40;;;8.90;99.90;;;;;;5007137;28;20483;-62
2023/04/16 05:02:05;;;;;;;20.23;17.57;;;8.90;99.90;;;;;;5007956;28;21596;-61
2023/04/16 05:04:33;;;;;;;19.67;17.57;;;8.90;99.90;;;;;;5003696;28;20943;-61
2023/04/16 05:07:02;;;;;;;20.17;18.07;;;8.90;99.90;;;;;;5006265;28;20467;-62
2023/04/16 05:09:30;;;;;;;21.17;17.40;;;9.00;99.90;;;;;;5014716;28;20487;-62
2023/04/16 05:11:58;;;;;;;19.83;17.73;;;9.00;99.90;;;;;;5006453;28;20499;-61
2023/04/16 05:14:26;;;;;;;20.13;17.93;;;9.00;99.90;;;;;;5002394;28;20482;-62
2023/04/16 05:16:55;;;;;;;19.93;17.83;;;9.00;99.90;;;;;;5003049;28;20475;-61
2023/04/16 05:19:23;;;;;;;19.63;17.60;;;9.00;99.90;;;;;;5014894;28;20517;-62
2023/04/16 05:21:51;;;;;;;20.40;18.30;;;9.00;99.90;;;;;;5015322;28;20478;-61
2023/04/16 05:24:20;;;;;;;19.07;17.17;;;9.00;99.90;;;;;;5012272;28;20475;-61
2023/04/16 05:26:48;;;;;;;20.03;18.03;;;9.00;99.90;;;;;;5005608;28;20471;-62
2023/04/16 05:29:16;;;;;;;19.83;17.80;;;9.00;99.90;;;;;;5006715;28;20680;-62
2023/04/16 05:31:44;;;;;;;19.47;17.37;;;9.10;99.90;;;;;;5013643;28;20883;-62
2023/04/16 05:34:12;;;;;;;19.50;17.50;;;9.10;99.90;;;;;;4998153;28;20478;-64
2023/04/16 05:36:40;;;;;;;22.50;18.10;;;9.10;99.90;;;;;;5016244;28;20471;-61
2023/04/16 05:39:09;;;;;;;20.43;18.33;;;9.10;99.90;;;;;;5001266;28;20493;-62
2023/04/16 05:41:38;;;;;;;20.40;18.20;;;9.10;99.90;;;;;;4993820;28;20724;-62
2023/04/16 05:44:06;;;;;;;20.00;18.00;;;9.20;99.90;;;;;;4991979;28;20472;-64
2023/04/16 05:46:35;;;;;;;21.13;18.43;;;9.20;99.90;;;;;;5010262;28;21115;-62
2023/04/16 05:49:03;;;;;;;20.43;17.20;;;9.20;99.90;;;;;;5012832;28;20941;-62
2023/04/16 05:51:31;;;;;;;20.97;18.43;;;9.20;99.90;;;;;;5000627;28;20502;-62
2023/04/16 05:53:59;;;;;;;21.23;18.97;;;9.20;99.90;;;;;;5008219;28;20487;-62
2023/04/16 05:56:27;;;;;;;22.07;19.80;;;9.20;99.90;;;;;;5024504;28;20475;-61
2023/04/16 05:58:56;;;;;;;22.70;19.53;;;9.20;99.90;;;;;;5014680;28;20490;-62
2023/04/16 06:01:25;;;;;;;20.50;17.93;;;9.20;99.90;;;;;;5016613;28;20487;-62
2023/04/16 06:03:53;;;;;;;19.83;17.57;;;9.20;99.90;;;;;;5015507;28;20851;-63
2023/04/16 06:06:21;;;;;;;20.43;18.13;;;9.20;99.90;;;;;;5022672;28;20513;-63
2023/04/16 06:08:49;;;;;;;20.43;18.17;;;9.20;99.90;;;;;;5014426;28;20499;-62
2023/04/16 06:11:17;;;;;;;20.47;18.27;;;9.20;99.90;;;;;;4998399;28;20496;-63
2023/04/16 06:13:45;;;;;;;20.97;18.57;;;9.20;99.90;;;;;;5009918;28;20896;-62
2023/04/16 06:16:14;;;;;;;19.43;17.63;;;9.20;99.90;;;;;;5014334;28;20467;-62
2023/04/16 06:18:42;;;;;;;22.03;19.27;;;9.30;99.90;;;;;;5017051;28;20483;-62
2023/04/16 06:21:10;;;;;;;19.60;17.47;;;9.30;99.90;;;;;;5020525;28;20483;-62
2023/04/16 06:23:38;;;;;;;19.93;17.87;;;9.30;99.90;;;;;;5002574;28;20478;-62
2023/04/16 06:26:06;;;;;;;22.17;19.50;;;9.30;99.90;;;;;;5006443;28;20472;-61
2023/04/16 06:28:34;;;;;;;20.03;17.93;;;9.40;99.90;;;;;;5013320;28;20522;-63
2023/04/16 06:31:02;;;;;;;19.63;17.50;;;9.40;99.90;;;;;;4987563;28;21612;-62
2023/04/16 06:33:31;;;;;;;20.10;18.00;;;9.40;99.90;;;;;;4990832;28;21795;-62
2023/04/16 06:35:59;;;;;;;20.97;18.80;;;9.40;99.90;;;;;;4996710;28;20475;-61
2023/04/16 06:38:27;;;;;;;19.43;17.43;;;9.50;99.90;;;;;;4993255;28;20499;-64
2023/04/16 06:40:55;;;;;;;19.43;17.57;;;9.50;99.90;;;;;;4989695;28;20850;-62
2023/04/16 06:43:23;;;;;;;21.97;17.97;;;9.50;99.90;;;;;;5010631;28;20472;-62
2023/04/16 06:45:51;;;;;;;20.83;18.03;;;9.50;99.90;;;;;;4996141;28;20490;-61
2023/04/16 06:48:19;;;;;;;19.93;17.70;;;9.50;99.90;;;;;;4996798;28;20498;-61
2023/04/16 06:50:48;;;;;;;20.20;18.10;;;9.60;99.90;;;;;;4997663;28;20477;-62
2023/04/16 06:53:16;;;;;;;19.37;16.90;;;9.60;99.90;;;;;;5003137;28;20506;-62
2023/04/16 06:55:44;;;;;;;19.27;17.27;;;9.70;99.90;;;;;;4996622;28;20468;-62
2023/04/16 06:58:12;;;;;;;18.27;16.37;;;9.70;99.90;;;;;;5014966;28;20526;-62
2023/04/16 07:00:40;;;;;;;20.73;17.10;;;9.70;99.90;;;;;;5001411;28;20521;-63
2023/04/16 07:03:08;;;;;;;19.57;17.50;;;9.70;99.90;;;;;;5007356;28;20843;-62
2023/04/16 07:05:36;;;;;;;19.27;17.27;;;9.70;99.90;;;;;;4998095;28;20547;-62
2023/04/16 07:08:06;;;;;;;19.87;16.97;;;9.70;99.90;;;;;;4987076;28;20495;-62
2023/04/16 07:10:34;;;;;;;18.10;16.30;;;9.70;99.90;;;;;;4988405;28;20482;-62
2023/04/16 07:13:02;;;;;;;19.97;17.13;;;9.80;99.90;;;;;;5008210;28;20491;-62
2023/04/16 07:15:30;;;;;;;22.13;16.83;;;9.80;99.90;;;;;;5011079;28;21003;-61
2023/04/16 07:17:57;;;;;;;17.60;15.70;;;9.80;99.90;;;;;;5013940;28;20941;-61
2023/04/16 07:20:26;;;;;;;19.50;16.37;;;9.80;99.90;;;;;;5015491;28;21122;-62
2023/04/16 07:22:54;;;;;;;19.20;17.20;;;9.80;99.90;;;;;;5015872;28;20557;-63
2023/04/16 07:25:23;;;;;;;18.57;16.67;;;9.80;99.90;;;;;;5018128;28;20472;-63
2023/04/16 07:27:51;;;;;;;22.23;17.07;;;9.90;99.90;;;;;;5018528;28;20507;-61
2023/04/16 07:30:19;;;;;;;20.13;17.87;;;9.90;99.90;;;;;;5010669;28;21273;-62
2023/04/16 07:32:47;;;;;;;18.43;16.10;;;9.90;99.90;;;;;;4994135;28;20507;-62
2023/04/16 07:35:15;;;;;;;19.27;16.33;;;9.90;99.90;;;;;;4981665;28;20482;-62
2023/04/16 07:37:43;;;;;;;19.00;16.60;;;9.90;99.90;;;;;;4992642;28;20497;-62
2023/04/16 07:40:12;;;;;;;17.63;15.93;;;9.90;99.90;;;;;;4993930;28;20478;-62
2023/04/16 07:42:41;;;;;;;18.00;15.93;;;9.90;99.90;;;;;;4984341;28;20738;-63
2023/04/16 07:45:10;;;;;;;19.87;16.10;;;9.90;99.90;;;;;;5004883;28;20823;-66
2023/04/16 07:47:38;;;;;;;17.87;16.17;;;9.90;99.90;;;;;;4996517;28;20495;-63
2023/04/16 07:50:07;;;;;;;18.30;16.40;;;9.90;99.90;;;;;;5011505;28;21182;-63
2023/04/16 07:52:37;;;;;;;18.13;16.33;;;10.00;99.90;;;;;;5001620;28;20494;-63
2023/04/16 07:55:06;;;;;;;19.27;16.13;;;10.00;99.90;;;;;;5014190;28;20509;-62
2023/04/16 07:57:34;;;;;;;17.43;15.77;;;10.00;99.90;;;;;;5012236;28;20519;-63
2023/04/16 08:00:04;;;;;;;18.10;16.30;;;10.10;99.90;;;;;;5014197;28;20479;-62
2023/04/16 08:02:32;;;;;;;18.73;16.13;;;10.10;99.90;;;;;;5010453;28;21477;-62
2023/04/16 08:05:00;;;;;;;16.37;14.67;;;10.10;99.90;;;;;;5013063;28;20490;-63
2023/04/16 08:07:28;;;;;;;20.47;16.40;;;10.10;99.90;;;;;;5007806;28;21063;-62
2023/04/16 08:09:57;;;;;;;18.13;16.27;;;10.10;99.90;;;;;;5016082;28;20471;-62
2023/04/16 08:12:25;;;;;;;17.10;15.30;;;10.20;99.90;;;;;;5015178;28;20491;-63
2023/04/16 08:14:53;;;;;;;19.27;17.23;;;10.20;99.90;;;;;;5010629;28;20842;-63
2023/04/16 08:17:22;;;;;;;16.67;14.90;;;10.30;99.90;;;;;;5013431;28;20468;-62
2023/04/16 08:19:50;;;;;;;16.53;14.83;;;10.30;99.90;;;;;;5033251;28;20464;-63
2023/04/16 08:22:18;;;;;;;17.33;15.50;;;10.30;99.90;;;;;;5027249;28;20486;-63
2023/04/16 08:24:46;;;;;;;19.70;15.93;;;10.40;99.90;;;;;;5020675;28;20479;-63
2023/04/16 08:27:15;;;;;;;15.93;14.23;;;10.40;99.90;;;;;;5016409;28;20471;-62
2023/04/16 08:29:47;;;;;;;17.80;15.90;;;10.50;99.90;;;;;;5016025;28;20549;-63
2023/04/16 08:32:15;;;;;;;17.37;15.27;;;10.50;99.90;;;;;;5015482;28;20490;-62
2023/04/16 08:34:44;;;;;;;18.47;15.70;;;10.50;99.90;;;;;;5010484;28;20483;-62
2023/04/16 08:37:12;;;;;;;17.07;14.27;;;10.50;99.90;;;;;;5011656;28;20468;-63
2023/04/16 08:39:40;;;;;;;16.83;15.20;;;10.60;99.90;;;;;;5008174;28;20479;-63
2023/04/16 08:42:13;;;;;;;16.93;15.30;;;10.70;99.90;;;;;;5014116;28;20511;-62
2023/04/16 08:44:47;;;;;;;17.90;16.10;;;10.70;99.90;;;;;;5008529;28;20467;-63
2023/04/16 08:47:16;;;;;;;17.07;15.40;;;10.70;99.90;;;;;;5012143;28;20479;-63
2023/04/16 08:49:46;;;;;;;17.50;15.80;;;10.80;99.90;;;;;;5014524;28;20471;-62
2023/04/16 08:52:18;;;;;;;17.07;15.37;;;10.80;99.90;;;;;;5014657;28;21074;-63
2023/04/16 08:54:53;;;;;;;16.83;15.07;;;10.80;99.90;;;;;;5014291;28;20961;-63
2023/04/16 08:57:30;;;;;;;16.37;14.77;;;10.80;99.90;;;;;;5009436;28;20489;-63
2023/04/16 08:59:59;;;;;;;16.00;14.30;;;10.90;99.90;;;;;;5015561;28;20559;-63
2023/04/16 09:02:27;;;;;;;17.00;15.13;;;10.90;99.90;;;;;;5017365;28;20479;-62
2023/04/16 09:05:00;;;;;;;17.53;15.60;;;10.90;99.90;;;;;;5015591;28;20475;-63
2023/04/16 09:07:29;;;;;;;16.17;14.57;;;10.90;99.90;;;;;;5012145;28;20992;-63
2023/04/16 09:09:59;;;;;;;16.73;14.93;;;10.90;99.90;;;;;;5011139;28;20474;-62
2023/04/16 09:12:27;;;;;;;16.43;14.83;;;11.10;99.90;;;;;;5013302;28;20487;-62
2023/04/16 09:14:58;;;;;;;18.37;16.47;;;11.10;99.90;;;;;;5012739;28;20498;-62
2023/04/16 09:17:27;;;;;;;17.33;14.80;;;11.30;99.90;;;;;;5013926;28;20474;-62
2023/04/16 09:19:55;;;;;;;16.83;15.03;;;11.50;99.90;;;;;;5009902;28;20826;-63
2023/04/16 09:22:24;;;;;;;16.17;14.60;;;11.70;99.90;;;;;;5008396;28;20869;-63
2023/04/16 09:24:52;;;;;;;15.80;14.20;;;11.80;99.90;;;;;;5013680;28;20479;-62
2023/04/16 09:27:21;;;;;;;16.70;15.00;;;11.90;99.90;;;;;;5000259;28;20471;-62
2023/04/16 09:29:52;;;;;;;17.47;15.60;;;11.80;99.90;;;;;;5012989;28;20477;-62
2023/04/16 09:32:26;;;;;;;16.27;14.77;;;11.80;99.90;;;;;;5010479;28;20973;-62
2023/04/16 09:34:56;;;;;;;16.47;14.77;;;11.80;99.90;;;;;;5016255;28;20546;-62
2023/04/16 09:37:26;;;;;;;15.90;14.33;;;11.80;99.90;;;;;;5011050;28;20995;-62
2023/04/16 09:39:55;;;;;;;16.83;15.17;;;11.70;99.90;;;;;;5018077;28;20850;-63
2023/04/16 09:42:26;;;;;;;16.57;14.83;;;11.70;99.90;;;;;;5010447;28;20491;-62
2023/04/16 09:44:55;;;;;;;15.23;13.83;;;11.70;99.90;;;;;;5005637;28;21230;-62
2023/04/16 09:47:39;;;;;;;15.90;14.40;;;11.70;99.90;;;;;;5006115;28;20475;-64
2023/04/16 09:50:08;;;;;;;16.73;14.97;;;11.70;99.90;;;;;;5009574;28;20478;-63
2023/04/16 09:52:44;;;;;;;14.53;13.20;;;11.70;99.90;;;;;;5007673;28;20498;-63
2023/04/16 09:55:12;;;;;;;16.20;14.60;;;11.70;99.90;;;;;;5007348;28;20863;-63
2023/04/16 09:57:40;;;;;;;16.90;14.50;;;11.70;99.90;;;;;;5009551;28;20505;-63
2023/04/16 10:00:10;;;;;;;15.57;14.07;;;11.70;99.90;;;;;;5006617;28;20467;-62
2023/04/16 10:02:41;;;;;;;15.27;13.77;;;11.80;99.90;;;;;;5008899;28;20783;-63
2023/04/16 10:05:15;;;;;;;15.50;14.03;;;11.80;99.90;;;;;;5014442;28;20563;-63
2023/04/16 10:07:44;;;;;;;16.20;14.50;;;11.80;99.90;;;;;;5006553;28;20491;-62
2023/04/16 10:10:12;;;;;;;16.83;15.23;;;11.80;99.90;;;;;;5004959;28;20477;-61
2023/04/16 10:12:41;;;;;;;15.43;14.00;;;11.80;99.90;;;;;;5012351;28;20988;-62
2023/04/16 10:15:09;;;;;;;15.10;13.57;;;11.80;99.90;;;;;;5013153;28;20469;-63
2023/04/16 10:17:38;;;;;;;14.90;13.40;;;11.80;99.90;;;;;;5014362;28;20843;-63
2023/04/16 10:20:08;;;;;;;15.13;13.53;;;11.80;99.90;;;;;;5007699;28;20464;-61
2023/04/16 10:22:37;;;;;;;14.93;13.63;;;11.80;99.90;;;;;;5019933;28;20498;-61
2023/04/16 10:25:07;;;;;;;14.73;13.23;;;11.80;99.90;;;;;;5023807;28;20463;-62
2023/04/16 10:27:37;;;;;;;15.27;13.70;;;11.80;99.90;;;;;;5018328;28;20502;-62
2023/04/16 10:30:07;;;;;;;15.60;13.83;;;11.80;99.90;;;;;;5017483;28;20571;-63
2023/04/16 10:32:36;;;;;;;16.00;14.40;;;11.80;99.90;;;;;;5017363;28;20941;-63
2023/04/16 10:35:06;;;;;;;15.47;13.97;;;11.80;99.90;;;;;;5015792;28;20502;-63
2023/04/16 10:37:34;;;;;;;15.93;14.50;;;11.80;99.90;;;;;;5018623;28;20555;-63
2023/04/16 10:40:21;;;;;;;17.10;15.50;;;11.70;99.90;;;;;;5015896;28;21002;-62
2023/04/16 10:42:55;;;;;;;17.00;15.23;;;11.70;99.90;;;;;;5027575;28;20598;-63
2023/04/16 10:45:30;;;;;;;15.80;14.30;;;11.70;99.90;;;;;;5026627;28;20542;-63
2023/04/16 10:47:58;;;;;;;16.37;14.73;;;11.70;99.90;;;;;;5035296;28;20693;-62
2023/04/16 10:50:35;;;;;;;16.50;14.90;;;11.70;99.90;;;;;;5033232;28;20472;-62
2023/04/16 10:53:20;;;;;;;15.90;14.20;;;11.80;99.90;;;;;;5029979;28;20498;-62
2023/04/16 10:55:58;;;;;;;15.63;14.23;;;11.90;99.90;;;;;;5032362;28;20471;-63
2023/04/16 10:58:32;;;;;;;16.73;15.03;;;11.80;99.90;;;;;;5027793;28;20501;-64
2023/04/16 11:01:00;;;;;;;16.50;14.80;;;11.90;99.90;;;;;;5025204;28;20480;-61
2023/04/16 11:03:31;;;;;;;16.90;15.20;;;11.90;99.90;;;;;;5030462;28;20470;-66
2023/04/16 11:06:13;;;;;;;18.77;15.33;;;11.80;99.90;;;;;;5028590;28;20464;-66
2023/04/16 11:08:42;;;;;;;17.33;15.10;;;11.80;99.90;;;;;;5031196;28;20498;-66
2023/04/16 11:11:22;;;;;;;16.43;14.70;;;11.80;99.90;;;;;;5033674;28;20475;-63
2023/04/16 11:13:55;;;;;;;16.43;14.73;;;11.80;99.90;;;;;;5032452;28;20555;-64
2023/04/16 11:16:25;;;;;;;16.53;14.83;;;11.80;99.90;;;;;;5021444;28;20482;-63
2023/04/16 11:18:53;;;;;;;16.20;14.50;;;11.70;99.90;;;;;;5019992;28;20570;-62
2023/04/16 11:21:24;;;;;;;16.43;14.73;;;11.60;99.90;;;;;;5021244;28;20571;-61
2023/04/16 11:23:53;;;;;;;16.40;14.80;;;11.70;99.90;;;;;;5020591;28;20474;-64
2023/04/16 11:26:23;;;;;;;17.80;15.90;;;11.60;99.90;;;;;;5018008;28;20562;-63
2023/04/16 11:28:53;;;;;;;16.50;14.77;;;11.60;99.90;;;;;;5018522;28;20491;-64
2023/04/16 11:31:22;;;;;;;16.60;15.00;;;11.60;99.90;;;;;;5016387;28;20488;-64
2023/04/16 11:33:50;;;;;;;16.30;14.73;;;11.60;99.90;;;;;;5016244;28;20496;-64
2023/04/16 11:36:21;;;;;;;19.47;16.40;;;11.60;99.90;;;;;;5015138;28;20464;-64
2023/04/16 11:39:00;;;;;;;16.70;14.93;;;11.60;99.90;;;;;;5016067;28;20502;-64
2023/04/16 11:41:28;;;;;;;18.17;16.40;;;11.60;99.90;;;;;;5013339;28;20551;-62
2023/04/16 11:43:58;;;;;;;16.80;15.10;;;11.60;99.90;;;;;;5011922;28;20467;-63
2023/04/16 11:46:38;;;;;;;15.47;14.07;;;11.70;99.90;;;;;;5015969;28;20957;-62
2023/04/16 11:49:06;;;;;;;15.20;13.60;;;11.70;99.90;;;;;;5016494;28;20970;-61
2023/04/16 11:51:39;;;;;;;15.93;14.30;;;11.80;99.90;;;;;;5011127;28;20554;-62
2023/04/16 11:54:08;;;;;;;15.33;13.90;;;11.80;99.90;;;;;;5009807;28;20494;-63
2023/04/16 11:56:45;;;;;;;15.40;13.90;;;11.80;99.90;;;;;;5019425;28;20467;-62
2023/04/16 11:59:16;;;;;;;15.23;13.63;;;11.80;99.90;;;;;;5017087;28;20486;-63
2023/04/16 12:01:47;;;;;;;17.53;14.23;;;11.90;99.90;;;;;;5017438;28;20491;-62
2023/04/16 12:04:19;;;;;;;14.57;13.27;;;11.90;99.90;;;;;;5013753;28;20540;-62
2023/04/16 12:07:06;;;;;;;16.47;14.77;;;11.90;99.90;;;;;;4998122;28;20460;-63
2023/04/16 12:09:35;;;;;;;14.87;13.47;;;11.90;99.90;;;;;;5005645;28;20499;-66
2023/04/16 12:12:25;;;;;;;15.20;13.63;;;11.90;99.90;;;;;;5001252;28;20480;-62
2023/04/16 12:14:55;;;;;;;15.10;13.60;;;11.80;99.90;;;;;;4997114;28;21045;-63
2023/04/16 12:17:24;;;;;;;15.93;14.33;;;11.80;99.90;;;;;;5008023;28;20949;-61
2023/04/16 12:19:55;;;;;;;16.70;15.00;;;11.80;99.90;;;;;;5001146;28;20529;-61
2023/04/16 12:22:28;;;;;;;17.53;15.27;;;11.80;99.90;;;;;;5003433;28;20483;-61
2023/04/16 12:24:58;;;;;;;15.33;13.90;;;11.80;99.90;;;;;;5015753;28;20486;-61
2023/04/16 12:27:27;;;;;;;15.60;13.90;;;11.80;99.90;;;;;;5015736;28;20475;-61
2023/04/16 12:30:07;;;;;;;16.33;14.70;;;11.80;99.90;;;;;;5016230;28;20588;-62
2023/04/16 12:32:35;;;;;;;15.63;14.13;;;11.80;99.90;;;;;;5020880;28;20484;-63
2023/04/16 12:35:04;;;;;;;15.87;14.37;;;11.80;99.90;;;;;;5014055;28;21032;-62
2023/04/16 12:37:32;;;;;;;15.50;14.10;;;11.80;99.90;;;;;;5010409;28;20475;-62
2023/04/16 12:40:00;;;;;;;15.97;14.47;;;11.80;99.90;;;;;;5009339;28;21261;-62
2023/04/16 12:42:34;;;;;;;15.20;13.70;;;11.90;99.90;;;;;;5013602;28;20488;-62